Time;durP1;ratioP1;P1;durP2;ratioP2;P2;SDS_P1;SDS_P2;PMS_P1;PMS_P2;Temp;Humidity;BMP_temperature;BMP_pressure;BME280_temperature;BME280_humidity;BME280_pressure;Samples;Min_cycle;Max_cycle;Signal;HPM_P1;HPM_P2
2022/10/28 00:02:15;;;;;;;8.80;4.23;;;;;;;;;;5006193;28;20410;-48
2022/10/28 00:04:41;;;;;;;13.57;4.90;;;;;;;;;;5006735;28;20410;-48
2022/10/28 00:07:07;;;;;;;18.17;5.47;;;;;;;;;;5007124;28;20797;-47
2022/10/28 00:09:33;;;;;;;5.73;3.90;;;;;;;;;;5006814;28;20414;-46
2022/10/28 00:11:59;;;;;;;8.37;4.93;;;;;;;;;;5006423;28;20400;-48
2022/10/28 00:14:25;;;;;;;7.70;3.83;;;;;;;;;;5011383;28;20445;-48
2022/10/28 00:16:51;;;;;;;10.83;4.10;;;;;;;;;;5009114;28;20967;-47
2022/10/28 00:19:17;;;;;;;9.33;4.27;;;;;;;;;;5004063;28;20479;-47
2022/10/28 00:21:43;;;;;;;9.23;3.90;;;;;;;;;;5004667;28;20406;-47
2022/10/28 00:24:10;;;;;;;8.27;3.60;;;;;;;;;;5008231;28;20419;-47
2022/10/28 00:26:37;;;;;;;4.80;3.90;;;;;;;;;;5009469;28;20405;-48
2022/10/28 00:29:05;;;;;;;12.03;3.30;;;;;;;;;;5006776;28;20811;-48
2022/10/28 00:31:32;;;;;;;10.90;4.67;;;;;;;;;;5009418;28;20450;-48
2022/10/28 00:33:58;;;;;;;7.97;5.10;;;;;;;;;;5008777;28;20425;-47
2022/10/28 00:36:26;;;;;;;9.40;4.00;;;;;;;;;;5001858;28;20442;-48
2022/10/28 00:38:53;;;;;;;8.50;3.67;;;;;;;;;;5009348;28;20417;-48
2022/10/28 00:41:21;;;;;;;10.33;4.27;;;;;;;;;;5006417;28;20501;-46
2022/10/28 00:43:48;;;;;;;10.10;3.60;;;;;;;;;;5006230;28;20745;-46
2022/10/28 00:46:20;;;;;;;11.40;4.33;;;;;;;;;;5007361;28;20381;-49
2022/10/28 00:48:47;;;;;;;9.33;4.27;;;;;;;;;;4999988;28;20427;-48
2022/10/28 00:51:13;;;;;;;5.43;3.43;;;;;;;;;;5001743;28;20418;-49
2022/10/28 00:53:41;;;;;;;6.73;4.10;;;;;;;;;;5006148;28;20460;-47
2022/10/28 00:56:08;;;;;;;7.63;3.87;;;;;;;;;;5010966;28;20512;-48
2022/10/28 00:58:34;;;;;;;9.57;4.43;;;;;;;;;;5005633;28;20943;-47
2022/10/28 01:01:00;;;;;;;9.10;4.30;;;;;;;;;;5007984;28;21040;-46
2022/10/28 01:03:26;;;;;;;7.10;4.23;;;;;;;;;;5004953;28;20410;-46
2022/10/28 01:05:52;;;;;;;10.63;3.87;;;;;;;;;;5004263;28;20406;-48
2022/10/28 01:08:19;;;;;;;7.63;3.40;;;;;;;;;;5006397;28;20446;-48
2022/10/28 01:10:45;;;;;;;8.83;4.80;;;;;;;;;;5007964;28;20409;-48
2022/10/28 01:13:15;;;;;;;11.17;3.67;;;;;;;;;;5009212;28;20410;-48
2022/10/28 01:15:48;;;;;;;9.87;4.00;;;;;;;;;;5006239;28;20467;-46
2022/10/28 01:18:26;;;;;;;7.80;4.90;;;;;;;;;;5001121;28;20469;-45
2022/10/28 01:20:52;;;;;;;13.83;3.93;;;;;;;;;;5005115;28;20457;-46
2022/10/28 01:23:26;;;;;;;6.07;3.43;;;;;;;;;;5002870;28;20412;-45
2022/10/28 01:25:58;;;;;;;10.40;3.57;;;;;;;;;;5001863;28;21133;-45
2022/10/28 01:28:42;;;;;;;8.83;3.77;;;;;;;;;;4993557;28;20425;-44
2022/10/28 01:31:27;;;;;;;3.20;2.87;;;;;;;;;;5002680;28;20502;-45
2022/10/28 01:34:07;;;;;;;7.67;3.30;;;;;;;;;;5001395;28;20501;-45
2022/10/28 01:36:52;;;;;;;9.73;3.80;;;;;;;;;;5001445;28;20425;-45
2022/10/28 01:39:26;;;;;;;20.47;4.03;;;;;;;;;;5003727;28;20420;-45
2022/10/28 01:41:56;;;;;;;9.20;3.50;;;;;;;;;;5001627;28;20417;-45
2022/10/28 01:44:22;;;;;;;6.90;3.40;;;;;;;;;;5003753;28;20422;-45
2022/10/28 01:47:01;;;;;;;9.60;3.70;;;;;;;;;;5001023;28;20437;-45
2022/10/28 01:49:30;;;;;;;7.07;3.47;;;;;;;;;;4994246;28;20425;-44
2022/10/28 01:52:00;;;;;;;11.00;3.70;;;;;;;;;;5001777;28;20406;-44
2022/10/28 01:54:29;;;;;;;10.53;3.30;;;;;;;;;;4993791;28;20414;-45
2022/10/28 01:56:56;;;;;;;12.67;4.37;;;;;;;;;;4998500;28;20401;-46
2022/10/28 01:59:24;;;;;;;11.37;3.40;;;;;;;;;;5001930;28;20427;-45
2022/10/28 02:01:50;;;;;;;11.83;4.20;;;;;;;;;;5000018;28;20415;-45
2022/10/28 02:04:16;;;;;;;6.30;3.40;;;;;;;;;;5003287;28;20400;-45
2022/10/28 02:06:43;;;;;;;10.67;3.50;;;;;;;;;;5003676;28;20441;-45
2022/10/28 02:09:15;;;;;;;7.90;3.00;;;;;;;;;;5004983;28;20418;-46
2022/10/28 02:12:02;;;;;;;7.07;3.20;;;;;;;;;;5001207;28;20465;-45
2022/10/28 02:14:46;;;;;;;11.60;3.60;;;;;;;;;;4990559;28;20410;-46
2022/10/28 02:17:19;;;;;;;6.10;4.03;;;;;;;;;;5001109;28;20444;-45
2022/10/28 02:19:53;;;;;;;8.57;3.80;;;;;;;;;;5005110;28;20840;-45
2022/10/28 02:22:24;;;;;;;8.07;3.70;;;;;;;;;;5000066;28;20421;-45
2022/10/28 02:24:54;;;;;;;11.87;3.73;;;;;;;;;;4999450;28;20462;-45
2022/10/28 02:27:26;;;;;;;12.27;3.80;;;;;;;;;;5001258;28;20979;-45
2022/10/28 02:30:01;;;;;;;5.83;3.37;;;;;;;;;;5000382;28;20419;-45
2022/10/28 02:32:30;;;;;;;6.90;3.67;;;;;;;;;;4992991;28;20411;-45
2022/10/28 02:34:58;;;;;;;8.00;3.33;;;;;;;;;;5000512;28;20416;-46
2022/10/28 02:37:29;;;;;;;9.00;3.63;;;;;;;;;;4995653;28;20430;-45
2022/10/28 02:39:57;;;;;;;6.33;3.63;;;;;;;;;;5003207;28;20449;-45
2022/10/28 02:42:25;;;;;;;18.90;4.10;;;;;;;;;;4989441;28;20449;-45
2022/10/28 02:44:59;;;;;;;6.33;3.40;;;;;;;;;;5003607;28;20409;-45
2022/10/28 02:47:27;;;;;;;10.23;3.70;;;;;;;;;;4994396;28;20437;-46
2022/10/28 02:49:56;;;;;;;4.83;3.00;;;;;;;;;;5000580;28;20930;-45
2022/10/28 02:52:24;;;;;;;6.97;3.80;;;;;;;;;;5003253;28;20444;-45
2022/10/28 02:54:57;;;;;;;10.40;3.80;;;;;;;;;;5000173;28;20405;-45
2022/10/28 02:57:28;;;;;;;7.73;3.87;;;;;;;;;;5002118;28;20598;-45
2022/10/28 02:59:56;;;;;;;6.47;3.47;;;;;;;;;;5003503;28;21023;-45
2022/10/28 03:02:23;;;;;;;6.30;3.90;;;;;;;;;;5006669;28;20500;-45
2022/10/28 03:04:49;;;;;;;6.60;3.77;;;;;;;;;;5003830;28;20898;-45
2022/10/28 03:07:15;;;;;;;16.57;4.27;;;;;;;;;;4998089;28;20445;-45
2022/10/28 03:09:41;;;;;;;6.77;3.40;;;;;;;;;;5003263;28;20389;-48
2022/10/28 03:12:07;;;;;;;4.30;3.77;;;;;;;;;;5004879;28;20409;-48
2022/10/28 03:14:33;;;;;;;6.73;3.67;;;;;;;;;;5020838;28;20487;-47
2022/10/28 03:16:59;;;;;;;14.43;4.47;;;;;;;;;;5007357;28;20515;-47
2022/10/28 03:19:25;;;;;;;9.23;3.23;;;;;;;;;;5011762;28;20434;-46
2022/10/28 03:21:51;;;;;;;9.93;4.30;;;;;;;;;;5010101;28;20917;-47
2022/10/28 03:24:17;;;;;;;6.87;3.23;;;;;;;;;;5004576;28;20410;-48
2022/10/28 03:26:43;;;;;;;11.03;2.90;;;;;;;;;;5010246;28;20449;-48
2022/10/28 03:29:09;;;;;;;6.30;3.40;;;;;;;;;;5009059;28;20414;-48
2022/10/28 03:31:35;;;;;;;10.57;3.50;;;;;;;;;;5009785;28;20548;-47
2022/10/28 03:34:01;;;;;;;8.37;3.87;;;;;;;;;;5008061;28;20407;-48
2022/10/28 03:36:27;;;;;;;5.70;3.80;;;;;;;;;;5010123;28;20886;-48
2022/10/28 03:38:52;;;;;;;9.67;3.57;;;;;;;;;;5008348;28;20741;-47
2022/10/28 03:41:18;;;;;;;7.43;3.90;;;;;;;;;;5002226;28;20462;-47
2022/10/28 03:43:45;;;;;;;8.77;3.80;;;;;;;;;;5010332;28;20539;-46
2022/10/28 03:46:11;;;;;;;7.23;4.23;;;;;;;;;;5007471;28;20411;-47
2022/10/28 03:48:36;;;;;;;6.47;4.10;;;;;;;;;;5023452;28;20427;-49
2022/10/28 03:51:02;;;;;;;8.27;3.67;;;;;;;;;;5007566;28;20443;-48
2022/10/28 03:53:28;;;;;;;12.93;4.13;;;;;;;;;;5023115;28;20428;-48
2022/10/28 03:55:55;;;;;;;6.67;4.00;;;;;;;;;;5007064;28;20890;-49
2022/10/28 03:58:21;;;;;;;11.70;3.73;;;;;;;;;;5006248;28;20446;-48
2022/10/28 04:00:48;;;;;;;6.50;3.73;;;;;;;;;;5010494;28;20468;-48
2022/10/28 04:03:14;;;;;;;13.83;4.30;;;;;;;;;;5005153;28;20385;-46
2022/10/28 04:05:40;;;;;;;7.93;3.63;;;;;;;;;;5005871;28;20405;-48
2022/10/28 04:08:06;;;;;;;14.33;4.13;;;;;;;;;;5006465;28;20436;-46
2022/10/28 04:10:32;;;;;;;16.60;4.30;;;;;;;;;;5006862;28;20501;-46
2022/10/28 04:12:59;;;;;;;8.67;4.20;;;;;;;;;;5007489;28;20424;-47
2022/10/28 04:15:25;;;;;;;9.47;5.23;;;;;;;;;;5010569;28;20414;-47
2022/10/28 04:17:51;;;;;;;8.47;3.80;;;;;;;;;;5023842;28;20407;-46
2022/10/28 04:20:17;;;;;;;3.80;3.30;;;;;;;;;;5003469;28;20463;-49
2022/10/28 04:22:43;;;;;;;7.93;3.30;;;;;;;;;;5003378;28;20414;-48
2022/10/28 04:25:10;;;;;;;6.37;3.60;;;;;;;;;;5006990;28;20879;-48
2022/10/28 04:27:36;;;;;;;9.77;3.80;;;;;;;;;;5009548;28;20398;-48
2022/10/28 04:30:02;;;;;;;5.03;3.57;;;;;;;;;;5007280;28;20390;-48
2022/10/28 04:32:27;;;;;;;14.50;4.60;;;;;;;;;;5008443;28;20434;-48
2022/10/28 04:34:53;;;;;;;9.73;3.90;;;;;;;;;;5008044;28;20421;-46
2022/10/28 04:37:19;;;;;;;7.97;4.10;;;;;;;;;;5000528;28;20433;-49
2022/10/28 04:39:45;;;;;;;10.40;4.80;;;;;;;;;;5008873;28;20468;-47
2022/10/28 04:42:11;;;;;;;14.33;3.67;;;;;;;;;;5005439;28;20393;-48
2022/10/28 04:44:37;;;;;;;11.53;4.30;;;;;;;;;;5006811;28;20441;-46
2022/10/28 04:47:03;;;;;;;6.53;3.97;;;;;;;;;;5006203;28;20452;-46
2022/10/28 04:49:29;;;;;;;7.33;3.97;;;;;;;;;;5007169;28;20418;-48
2022/10/28 04:51:55;;;;;;;16.90;4.10;;;;;;;;;;5000248;28;20414;-46
2022/10/28 04:54:21;;;;;;;7.43;4.53;;;;;;;;;;5011083;28;20411;-46
2022/10/28 04:56:47;;;;;;;9.63;3.73;;;;;;;;;;5008736;28;20403;-48
2022/10/28 04:59:13;;;;;;;9.80;3.53;;;;;;;;;;5003821;28;20432;-47
2022/10/28 05:01:39;;;;;;;8.10;3.73;;;;;;;;;;5005171;28;20524;-47
2022/10/28 05:04:05;;;;;;;10.63;4.27;;;;;;;;;;5005887;28;20405;-47
2022/10/28 05:06:31;;;;;;;12.33;5.20;;;;;;;;;;5005682;28;20422;-45
2022/10/28 05:08:57;;;;;;;9.60;4.20;;;;;;;;;;5005372;28;20416;-45
2022/10/28 05:11:23;;;;;;;5.77;3.70;;;;;;;;;;5009784;28;20746;-48
2022/10/28 05:13:51;;;;;;;22.23;4.87;;;;;;;;;;5007827;28;20387;-48
2022/10/28 05:16:17;;;;;;;7.40;3.60;;;;;;;;;;5002371;28;20413;-46
2022/10/28 05:18:43;;;;;;;7.90;3.80;;;;;;;;;;5002394;28;20420;-48
2022/10/28 05:21:09;;;;;;;8.20;4.10;;;;;;;;;;5006751;28;20898;-48
2022/10/28 05:23:35;;;;;;;6.30;3.67;;;;;;;;;;5008136;28;20397;-45
2022/10/28 05:26:01;;;;;;;9.50;4.67;;;;;;;;;;5005495;28;20428;-47
2022/10/28 05:28:27;;;;;;;7.53;3.53;;;;;;;;;;5007528;28;20433;-48
2022/10/28 05:30:53;;;;;;;11.33;4.57;;;;;;;;;;5006309;28;20448;-47
2022/10/28 05:33:19;;;;;;;8.70;4.30;;;;;;;;;;5000474;28;20893;-48
2022/10/28 05:35:45;;;;;;;14.03;4.23;;;;;;;;;;5008079;28;20420;-47
2022/10/28 05:38:11;;;;;;;11.60;4.63;;;;;;;;;;5004031;28;20436;-47
2022/10/28 05:40:37;;;;;;;8.90;4.70;;;;;;;;;;5005910;28;20538;-46
2022/10/28 05:43:03;;;;;;;12.10;4.57;;;;;;;;;;5006114;28;20445;-48
2022/10/28 05:45:29;;;;;;;7.70;4.67;;;;;;;;;;5005582;28;20379;-48
2022/10/28 05:47:55;;;;;;;10.57;4.23;;;;;;;;;;5004927;28;20892;-48
2022/10/28 05:50:22;;;;;;;10.57;4.60;;;;;;;;;;4998015;28;20418;-48
2022/10/28 05:52:52;;;;;;;7.87;4.10;;;;;;;;;;5007009;28;20511;-48
2022/10/28 05:55:19;;;;;;;10.97;3.93;;;;;;;;;;5001930;28;20398;-46
2022/10/28 05:57:46;;;;;;;17.83;5.70;;;;;;;;;;5002164;28;20408;-47
2022/10/28 06:00:12;;;;;;;11.30;4.17;;;;;;;;;;5004362;28;20465;-42
2022/10/28 06:02:38;;;;;;;12.90;4.60;;;;;;;;;;5004229;28;20410;-47
2022/10/28 06:05:05;;;;;;;11.60;4.13;;;;;;;;;;5005377;28;20413;-46
2022/10/28 06:07:31;;;;;;;4.23;3.53;;;;;;;;;;5008345;28;20786;-46
2022/10/28 06:09:57;;;;;;;7.60;3.53;;;;;;;;;;5007598;28;20387;-44
2022/10/28 06:12:23;;;;;;;7.10;4.17;;;;;;;;;;5017570;28;20546;-45
2022/10/28 06:14:49;;;;;;;12.07;4.60;;;;;;;;;;5001104;28;20443;-45
2022/10/28 06:17:15;;;;;;;11.10;3.90;;;;;;;;;;5006455;28;20912;-46
2022/10/28 06:19:41;;;;;;;9.10;4.03;;;;;;;;;;5007052;28;20809;-45
2022/10/28 06:22:07;;;;;;;8.90;6.00;;;;;;;;;;5005627;28;20399;-44
2022/10/28 06:24:33;;;;;;;9.70;4.03;;;;;;;;;;5005594;28;20500;-45
2022/10/28 06:26:59;;;;;;;10.60;4.50;;;;;;;;;;5006151;28;20446;-43
2022/10/28 06:29:25;;;;;;;8.57;4.20;;;;;;;;;;5016296;28;20387;-46
2022/10/28 06:31:51;;;;;;;9.50;4.03;;;;;;;;;;5008618;28;20415;-42
2022/10/28 06:34:17;;;;;;;9.03;4.43;;;;;;;;;;5001966;28;20417;-43
2022/10/28 06:36:43;;;;;;;6.63;4.03;;;;;;;;;;5001306;28;20427;-41
2022/10/28 06:39:09;;;;;;;13.50;4.70;;;;;;;;;;5001932;28;20404;-41
2022/10/28 06:41:35;;;;;;;10.90;4.13;;;;;;;;;;5022267;23;20573;-43
2022/10/28 06:44:01;;;;;;;4.90;4.20;;;;;;;;;;4988630;28;20404;-44
2022/10/28 06:46:28;;;;;;;13.83;5.00;;;;;;;;;;4980864;28;20468;-43
2022/10/28 06:48:54;;;;;;;6.93;3.87;;;;;;;;;;4985793;28;20409;-43
2022/10/28 06:51:20;;;;;;;14.10;4.63;;;;;;;;;;4980286;28;20414;-44
2022/10/28 06:53:50;;;;;;;7.30;4.20;;;;;;;;;;4980251;28;21136;-44
2022/10/28 06:56:16;;;;;;;14.70;4.43;;;;;;;;;;4982120;28;20462;-43
2022/10/28 06:58:43;;;;;;;12.10;4.03;;;;;;;;;;4981348;28;20411;-44
2022/10/28 07:01:10;;;;;;;7.07;4.83;;;;;;;;;;4977182;28;20446;-43
2022/10/28 07:03:36;;;;;;;9.13;6.03;;;;;;;;;;4983277;28;21007;-43
2022/10/28 07:06:01;;;;;;;8.20;4.67;;;;;;;;;;4984981;28;20501;-44
2022/10/28 07:08:27;;;;;;;15.43;4.60;;;;;;;;;;4979420;28;20444;-43
2022/10/28 07:10:55;;;;;;;8.10;4.00;;;;;;;;;;4977757;28;20423;-43
2022/10/28 07:13:21;;;;;;;9.77;4.70;;;;;;;;;;4981810;28;20725;-44
2022/10/28 07:15:51;;;;;;;10.20;4.97;;;;;;;;;;4976626;28;20781;-44
2022/10/28 07:18:17;;;;;;;9.83;4.03;;;;;;;;;;4985520;28;20481;-44
2022/10/28 07:20:43;;;;;;;9.63;4.33;;;;;;;;;;4983617;28;20532;-43
2022/10/28 07:23:09;;;;;;;12.70;4.70;;;;;;;;;;4974814;28;20426;-43
2022/10/28 07:25:35;;;;;;;8.50;4.10;;;;;;;;;;4971528;28;20414;-43
2022/10/28 07:28:01;;;;;;;8.93;4.17;;;;;;;;;;4976142;28;20552;-43
2022/10/28 07:30:27;;;;;;;11.13;4.80;;;;;;;;;;4988022;28;20414;-43
2022/10/28 07:32:53;;;;;;;10.03;3.90;;;;;;;;;;4980357;28;20933;-43
2022/10/28 07:35:20;;;;;;;12.73;4.57;;;;;;;;;;4983657;28;20789;-43
2022/10/28 07:37:46;;;;;;;14.97;4.43;;;;;;;;;;4978333;28;20402;-43
2022/10/28 07:40:12;;;;;;;13.90;4.20;;;;;;;;;;4978358;28;20461;-43
2022/10/28 07:42:38;;;;;;;10.17;4.23;;;;;;;;;;4983623;28;20943;-43
2022/10/28 07:45:04;;;;;;;9.93;4.67;;;;;;;;;;4974096;28;20466;-43
2022/10/28 07:47:30;;;;;;;7.90;3.77;;;;;;;;;;4977903;28;20405;-43
2022/10/28 07:49:58;;;;;;;13.77;4.40;;;;;;;;;;4976908;28;20434;-43
2022/10/28 07:52:24;;;;;;;6.20;4.40;;;;;;;;;;4982632;28;20940;-44
2022/10/28 07:54:50;;;;;;;6.40;4.10;;;;;;;;;;4978506;28;20400;-44
2022/10/28 07:57:16;;;;;;;10.20;4.17;;;;;;;;;;4980400;28;20423;-44
2022/10/28 07:59:42;;;;;;;6.33;4.30;;;;;;;;;;4982003;28;20460;-43
2022/10/28 08:02:14;;;;;;;12.00;4.10;;;;;;;;;;4978030;28;20449;-44
2022/10/28 08:04:40;;;;;;;14.43;5.07;;;;;;;;;;4981546;28;20408;-44
2022/10/28 08:07:06;;;;;;;8.47;3.83;;;;;;;;;;4981918;28;21055;-44
2022/10/28 08:09:32;;;;;;;11.93;4.13;;;;;;;;;;4976517;28;20768;-43
2022/10/28 08:11:58;;;;;;;10.43;4.30;;;;;;;;;;4977408;28;20449;-44
2022/10/28 08:14:24;;;;;;;9.00;4.30;;;;;;;;;;4986750;28;20461;-43
2022/10/28 08:16:50;;;;;;;9.13;4.20;;;;;;;;;;4983778;28;20852;-44
2022/10/28 08:19:16;;;;;;;6.37;3.87;;;;;;;;;;4985720;28;20420;-44
2022/10/28 08:21:42;;;;;;;10.33;5.10;;;;;;;;;;4982133;28;20467;-43
2022/10/28 08:24:08;;;;;;;14.53;4.50;;;;;;;;;;4983485;28;20471;-44
2022/10/28 08:26:34;;;;;;;10.33;4.40;;;;;;;;;;4985691;28;20791;-43
2022/10/28 08:29:00;;;;;;;14.30;5.17;;;;;;;;;;4982411;28;20509;-43
2022/10/28 08:31:26;;;;;;;13.40;5.10;;;;;;;;;;4985101;28;20432;-43
2022/10/28 08:33:52;;;;;;;13.23;4.43;;;;;;;;;;4971333;28;20611;-44
2022/10/28 08:36:18;;;;;;;16.87;5.37;;;;;;;;;;4986804;28;20934;-43
2022/10/28 08:38:45;;;;;;;13.63;5.17;;;;;;;;;;4987277;28;20472;-43
2022/10/28 08:41:17;;;;;;;11.63;4.13;;;;;;;;;;4988497;28;20474;-44
2022/10/28 08:43:46;;;;;;;16.27;4.77;;;;;;;;;;4985270;28;20813;-43
2022/10/28 08:46:24;;;;;;;8.93;3.80;;;;;;;;;;4995487;28;20432;-43
2022/10/28 08:48:50;;;;;;;16.10;4.10;;;;;;;;;;4981777;28;20416;-44
2022/10/28 08:51:44;;;;;;;7.93;6.30;;;;;;;;;;4985997;28;20942;-44
2022/10/28 08:54:16;;;;;;;12.07;4.70;;;;;;;;;;4984152;28;20490;-44
2022/10/28 08:56:45;;;;;;;11.93;4.37;;;;;;;;;;4983887;28;20424;-43
2022/10/28 08:59:14;;;;;;;12.77;4.27;;;;;;;;;;4984229;28;20902;-43
2022/10/28 09:01:42;;;;;;;9.80;4.37;;;;;;;;;;4982779;28;20468;-43
2022/10/28 09:04:35;;;;;;;16.53;4.80;;;;;;;;;;4983407;28;20920;-43
2022/10/28 09:07:02;;;;;;;8.30;3.90;;;;;;;;;;4983040;28;20429;-44
2022/10/28 09:09:28;;;;;;;13.53;3.57;;;;;;;;;;4987215;28;20432;-44
2022/10/28 09:12:15;;;;;;;13.37;4.13;;;;;;;;;;4985937;28;20804;-44
2022/10/28 09:14:43;;;;;;;9.63;4.80;;;;;;;;;;4977377;28;20453;-44
2022/10/28 09:17:13;;;;;;;8.30;4.00;;;;;;;;;;4978554;28;20422;-44
2022/10/28 09:19:48;;;;;;;14.90;5.00;;;;;;;;;;4985261;28;20485;-44
2022/10/28 09:22:23;;;;;;;10.50;5.67;;;;;;;;;;4983351;28;20451;-44
2022/10/28 09:24:59;;;;;;;6.97;4.37;;;;;;;;;;4982983;28;20810;-43
2022/10/28 09:27:30;;;;;;;12.23;4.10;;;;;;;;;;4974343;28;20885;-44
2022/10/28 09:30:16;;;;;;;14.30;4.13;;;;;;;;;;4981975;28;20415;-44
2022/10/28 09:32:48;;;;;;;6.87;4.57;;;;;;;;;;4978073;28;20828;-44
2022/10/28 09:35:18;;;;;;;12.83;3.50;;;;;;;;;;4985404;28;20416;-43
2022/10/28 09:37:52;;;;;;;7.53;3.80;;;;;;;;;;4985726;28;20496;-44
2022/10/28 09:40:26;;;;;;;8.97;3.50;;;;;;;;;;4986222;28;20467;-44
2022/10/28 09:42:54;;;;;;;13.53;4.30;;;;;;;;;;4985115;28;20542;-44
2022/10/28 09:45:27;;;;;;;12.47;5.40;;;;;;;;;;4978940;28;20416;-44
2022/10/28 09:48:05;;;;;;;12.17;3.80;;;;;;;;;;4986084;28;20984;-44
2022/10/28 09:50:32;;;;;;;9.40;4.10;;;;;;;;;;4978678;28;20462;-44
2022/10/28 09:53:16;;;;;;;16.43;3.40;;;;;;;;;;4982802;28;20448;-43
2022/10/28 09:55:42;;;;;;;16.80;4.10;;;;;;;;;;4982948;28;20441;-44
2022/10/28 09:58:09;;;;;;;10.43;3.63;;;;;;;;;;4983197;28;20417;-44
2022/10/28 10:00:36;;;;;;;14.47;4.63;;;;;;;;;;4982171;28;20453;-44
2022/10/28 10:03:02;;;;;;;7.50;4.30;;;;;;;;;;4983545;28;20445;-44
2022/10/28 10:05:29;;;;;;;17.47;4.00;;;;;;;;;;4987007;28;20430;-43
2022/10/28 10:08:01;;;;;;;9.07;3.60;;;;;;;;;;4979479;28;20488;-44
2022/10/28 10:10:48;;;;;;;10.43;4.00;;;;;;;;;;4975089;28;20422;-44
2022/10/28 10:13:17;;;;;;;8.50;3.63;;;;;;;;;;4973819;28;20460;-43
2022/10/28 10:15:45;;;;;;;15.03;5.73;;;;;;;;;;4984274;28;20439;-43
2022/10/28 10:18:13;;;;;;;12.27;3.50;;;;;;;;;;4973780;28;20491;-44
2022/10/28 10:20:49;;;;;;;11.30;3.70;;;;;;;;;;4983136;28;20491;-43
2022/10/28 10:23:35;;;;;;;10.70;4.17;;;;;;;;;;4978077;28;20460;-43
2022/10/28 10:26:03;;;;;;;12.63;4.00;;;;;;;;;;4979080;28;20404;-44
2022/10/28 10:28:29;;;;;;;7.90;3.63;;;;;;;;;;4979383;28;20451;-43
2022/10/28 10:30:57;;;;;;;6.37;3.50;;;;;;;;;;4981515;28;20471;-44
2022/10/28 10:33:30;;;;;;;8.40;3.60;;;;;;;;;;4975803;28;20492;-43
2022/10/28 10:36:05;;;;;;;10.50;4.00;;;;;;;;;;4986189;28;20813;-43
2022/10/28 10:38:31;;;;;;;6.57;3.47;;;;;;;;;;4974160;28;20785;-44
2022/10/28 10:40:57;;;;;;;9.17;3.60;;;;;;;;;;4977701;28;20468;-44
2022/10/28 10:43:29;;;;;;;10.43;3.17;;;;;;;;;;4981509;28;20474;-43
2022/10/28 10:46:01;;;;;;;8.30;3.73;;;;;;;;;;4974678;28;20400;-44
2022/10/28 10:48:28;;;;;;;15.20;4.00;;;;;;;;;;4968096;28;20909;-44
2022/10/28 10:50:54;;;;;;;10.10;3.63;;;;;;;;;;4981268;28;20431;-44
2022/10/28 10:53:23;;;;;;;14.77;3.93;;;;;;;;;;4983061;28;20660;-43
2022/10/28 10:55:51;;;;;;;6.50;2.93;;;;;;;;;;4982376;28;20443;-44
2022/10/28 10:58:19;;;;;;;15.37;4.60;;;;;;;;;;4981516;28;20545;-44
2022/10/28 11:00:47;;;;;;;6.30;3.47;;;;;;;;;;4986649;28;20919;-44
2022/10/28 11:03:17;;;;;;;11.63;4.17;;;;;;;;;;4981889;28;20417;-45
2022/10/28 11:05:51;;;;;;;10.83;4.27;;;;;;;;;;4982252;28;20460;-44
2022/10/28 11:08:37;;;;;;;8.77;3.20;;;;;;;;;;4973161;28;20425;-44
2022/10/28 11:11:05;;;;;;;7.80;3.20;;;;;;;;;;4982245;28;20443;-44
2022/10/28 11:13:33;;;;;;;15.30;4.63;;;;;;;;;;4973356;28;20448;-45
2022/10/28 11:16:00;;;;;;;9.20;3.53;;;;;;;;;;4981661;28;20413;-44
2022/10/28 11:18:28;;;;;;;8.97;3.60;;;;;;;;;;4980622;28;20838;-45
2022/10/28 11:21:29;;;;;;;9.97;3.33;;;;;;;;;;4983629;28;20519;-44
2022/10/28 11:24:03;;;;;;;10.40;4.67;;;;;;;;;;4993742;28;20422;-45
2022/10/28 11:26:33;;;;;;;16.40;4.23;;;;;;;;;;4972264;28;20423;-45
2022/10/28 11:29:02;;;;;;;10.17;3.10;;;;;;;;;;4977958;28;20419;-44
2022/10/28 11:31:47;;;;;;;6.87;3.13;;;;;;;;;;4981286;28;20431;-44
2022/10/28 11:34:12;;;;;;;6.67;3.27;;;;;;;;;;4971452;28;20499;-45
2022/10/28 11:36:52;;;;;;;8.90;3.90;;;;;;;;;;4983424;28;20496;-45
2022/10/28 11:39:24;;;;;;;9.83;4.07;;;;;;;;;;4971194;28;20192;-46
2022/10/28 11:42:00;;;;;;;8.50;3.80;;;;;;;;;;4983963;28;20452;-46
2022/10/28 11:44:41;;;;;;;7.50;3.00;;;;;;;;;;4972726;28;20422;-45
2022/10/28 11:47:26;;;;;;;9.57;3.97;;;;;;;;;;4983512;28;20405;-44
2022/10/28 11:50:10;;;;;;;8.87;3.50;;;;;;;;;;4979913;28;20451;-45
2022/10/28 11:52:45;;;;;;;8.63;3.90;;;;;;;;;;4975011;28;20445;-46
2022/10/28 11:55:33;;;;;;;9.60;3.80;;;;;;;;;;4982430;28;20411;-45
2022/10/28 11:58:17;;;;;;;8.83;3.60;;;;;;;;;;4983788;28;20869;-45
2022/10/28 12:00:46;;;;;;;12.90;3.90;;;;;;;;;;4985495;28;20471;-45
2022/10/28 12:03:12;;;;;;;14.37;6.30;;;;;;;;;;4986921;28;20435;-44
2022/10/28 12:05:41;;;;;;;16.23;3.50;;;;;;;;;;4983201;28;20434;-44
2022/10/28 12:08:27;;;;;;;12.80;4.10;;;;;;;;;;4978482;28;20204;-44
2022/10/28 12:10:59;;;;;;;10.37;3.20;;;;;;;;;;4994585;28;20798;-44
2022/10/28 12:13:44;;;;;;;8.70;3.27;;;;;;;;;;4986758;28;20440;-43
2022/10/28 12:16:25;;;;;;;12.30;4.17;;;;;;;;;;4986198;28;20415;-44
2022/10/28 12:18:56;;;;;;;9.70;3.63;;;;;;;;;;4980329;28;20392;-44
2022/10/28 12:21:22;;;;;;;18.43;4.10;;;;;;;;;;4975080;28;20526;-44
2022/10/28 12:23:49;;;;;;;16.47;4.03;;;;;;;;;;4983518;28;20882;-44
2022/10/28 12:26:15;;;;;;;10.90;3.13;;;;;;;;;;4986459;28;20178;-44
2022/10/28 12:28:41;;;;;;;8.10;3.30;;;;;;;;;;4985432;28;20413;-44
2022/10/28 12:31:17;;;;;;;6.67;2.80;;;;;;;;;;4986360;28;20436;-44
2022/10/28 12:33:45;;;;;;;8.47;3.13;;;;;;;;;;4983065;28;20407;-45
2022/10/28 12:36:24;;;;;;;7.90;3.63;;;;;;;;;;4981012;28;20416;-45
2022/10/28 12:39:00;;;;;;;12.87;4.00;;;;;;;;;;4986350;28;20822;-45
2022/10/28 12:41:27;;;;;;;5.83;3.23;;;;;;;;;;4976202;28;20467;-44
2022/10/28 12:43:59;;;;;;;9.97;3.67;;;;;;;;;;4982448;28;20516;-45
2022/10/28 12:46:30;;;;;;;10.63;3.70;;;;;;;;;;4974693;28;20397;-45
2022/10/28 12:49:01;;;;;;;9.70;3.67;;;;;;;;;;4982809;28;20488;-44
2022/10/28 12:51:29;;;;;;;14.63;3.30;;;;;;;;;;4975635;28;20480;-45
2022/10/28 12:53:58;;;;;;;10.33;3.60;;;;;;;;;;4983209;28;20745;-45
2022/10/28 12:56:29;;;;;;;14.87;3.90;;;;;;;;;;4977882;28;20846;-44
2022/10/28 12:59:03;;;;;;;5.70;2.97;;;;;;;;;;4986203;28;20911;-45
2022/10/28 13:01:30;;;;;;;6.60;3.63;;;;;;;;;;4973591;28;20530;-45
2022/10/28 13:03:56;;;;;;;11.53;3.60;;;;;;;;;;4978203;28;20412;-46
2022/10/28 13:06:28;;;;;;;10.40;4.03;;;;;;;;;;4986428;28;20422;-44
2022/10/28 13:08:54;;;;;;;9.10;3.97;;;;;;;;;;4983186;28;20454;-45
2022/10/28 13:11:20;;;;;;;11.30;3.57;;;;;;;;;;4985684;28;20455;-45
2022/10/28 13:14:00;;;;;;;12.90;3.73;;;;;;;;;;4982486;28;20417;-44
2022/10/28 13:16:32;;;;;;;9.43;3.80;;;;;;;;;;4978058;28;20187;-45
2022/10/28 13:19:08;;;;;;;8.50;4.20;;;;;;;;;;4987073;28;20404;-45
2022/10/28 13:21:53;;;;;;;11.03;3.50;;;;;;;;;;4971430;28;20471;-44
2022/10/28 13:24:33;;;;;;;9.93;3.20;;;;;;;;;;4967444;28;20413;-45
2022/10/28 13:27:01;;;;;;;10.97;4.00;;;;;;;;;;4969420;28;20421;-44
2022/10/28 13:29:30;;;;;;;11.53;3.20;;;;;;;;;;4971340;28;20428;-45
2022/10/28 13:31:56;;;;;;;11.37;3.43;;;;;;;;;;4974258;28;20496;-45
2022/10/28 13:34:28;;;;;;;16.70;3.60;;;;;;;;;;4989077;28;20439;-45
2022/10/28 13:36:58;;;;;;;15.13;4.33;;;;;;;;;;4985779;28;20412;-44
2022/10/28 13:39:24;;;;;;;9.60;3.87;;;;;;;;;;4974047;28;20500;-45
2022/10/28 13:42:09;;;;;;;11.47;3.90;;;;;;;;;;4981819;28;21025;-46
2022/10/28 13:44:52;;;;;;;10.23;3.63;;;;;;;;;;4981646;28;20440;-46
2022/10/28 13:47:39;;;;;;;9.30;3.83;;;;;;;;;;4982451;28;20463;-44
2022/10/28 13:50:08;;;;;;;15.30;3.50;;;;;;;;;;4982639;28;20431;-45
2022/10/28 13:52:34;;;;;;;12.73;3.83;;;;;;;;;;4985508;28;20960;-44
2022/10/28 13:55:19;;;;;;;10.23;3.20;;;;;;;;;;4985324;28;20423;-44
2022/10/28 13:57:46;;;;;;;8.73;3.37;;;;;;;;;;4983369;28;20418;-44
2022/10/28 14:00:18;;;;;;;13.03;3.87;;;;;;;;;;4978979;28;20467;-44
2022/10/28 14:02:47;;;;;;;12.23;3.43;;;;;;;;;;4987071;28;20494;-44
2022/10/28 14:05:15;;;;;;;9.00;3.67;;;;;;;;;;4984500;28;20414;-44
2022/10/28 14:07:56;;;;;;;8.73;3.20;;;;;;;;;;4985183;28;20447;-44
2022/10/28 14:10:29;;;;;;;5.93;3.50;;;;;;;;;;4985241;28;20408;-44
2022/10/28 14:12:58;;;;;;;8.90;3.43;;;;;;;;;;4986100;28;20428;-43
2022/10/28 14:15:29;;;;;;;10.50;3.13;;;;;;;;;;4982649;28;20790;-44
2022/10/28 14:17:57;;;;;;;12.87;3.53;;;;;;;;;;4982287;28;20425;-44
2022/10/28 14:20:27;;;;;;;6.63;3.70;;;;;;;;;;4977710;28;20965;-44
2022/10/28 14:22:53;;;;;;;11.40;3.30;;;;;;;;;;4982875;28;20428;-43
2022/10/28 14:25:38;;;;;;;7.63;3.37;;;;;;;;;;4973157;28;20432;-43
2022/10/28 14:28:24;;;;;;;14.93;3.70;;;;;;;;;;4974872;28;20435;-44
2022/10/28 14:31:11;;;;;;;8.10;3.67;;;;;;;;;;4983927;28;20782;-44
2022/10/28 14:33:37;;;;;;;10.23;4.00;;;;;;;;;;4978242;28;20845;-43
2022/10/28 14:36:18;;;;;;;8.27;3.70;;;;;;;;;;4979838;28;20963;-44
2022/10/28 14:38:53;;;;;;;13.30;4.70;;;;;;;;;;4980382;28;20508;-44
2022/10/28 14:41:43;;;;;;;7.30;3.63;;;;;;;;;;4981707;28;20455;-43
2022/10/28 14:44:18;;;;;;;7.37;3.60;;;;;;;;;;4982868;28;20918;-44
2022/10/28 14:46:57;;;;;;;7.40;3.93;;;;;;;;;;4983289;28;20836;-45
2022/10/28 14:49:27;;;;;;;19.03;4.07;;;;;;;;;;4973266;28;20455;-43
2022/10/28 14:51:53;;;;;;;9.97;4.67;;;;;;;;;;4977704;28;20424;-44